Time;durP1;ratioP1;P1;durP2;ratioP2;P2;SDS_P1;SDS_P2;PMS_P1;PMS_P2;Temp;Humidity;BMP_temperature;BMP_pressure;BME280_temperature;BME280_humidity;BME280_pressure;Samples;Min_cycle;Max_cycle;Signal;HPM_P1;HPM_P2
2022/02/15 00:00:34;;;;;;;5.63;2.78;;;7.40;99.90;;;;;;5014815;28;20120;-38
2022/02/15 00:03:00;;;;;;;9.63;2.45;;;7.40;99.90;;;;;;5023441;28;20033;-36
2022/02/15 00:05:26;;;;;;;6.97;2.15;;;7.30;99.90;;;;;;5026940;28;20499;-40
2022/02/15 00:07:51;;;;;;;4.95;2.63;;;7.30;99.90;;;;;;5022463;28;20030;-36
2022/02/15 00:10:17;;;;;;;5.30;2.80;;;7.30;99.90;;;;;;5029819;28;20474;-37
2022/02/15 00:12:42;;;;;;;7.68;2.75;;;7.30;99.90;;;;;;5024790;28;20026;-39
2022/02/15 00:15:10;;;;;;;4.25;2.85;;;7.20;99.90;;;;;;5025465;28;20442;-37
2022/02/15 00:17:36;;;;;;;5.60;2.97;;;7.20;99.90;;;;;;5035009;28;20025;-54
2022/02/15 00:20:04;;;;;;;10.95;2.72;;;7.10;99.90;;;;;;5035786;28;20025;-40
2022/02/15 00:22:30;;;;;;;8.77;2.60;;;7.10;99.90;;;;;;5035072;28;20065;-36
2022/02/15 00:24:55;;;;;;;4.53;2.25;;;7.00;99.90;;;;;;5035992;28;20033;-40
2022/02/15 00:27:21;;;;;;;8.55;2.67;;;7.00;99.90;;;;;;5035004;28;20474;-36
2022/02/15 00:36:30;;;;;;;5.20;1.80;;;6.90;99.90;;;;;;5019050;28;20025;-35
2022/02/15 00:38:56;;;;;;;3.38;1.60;;;6.90;99.90;;;;;;5015566;28;20030;-36
2022/02/15 00:41:23;;;;;;;5.82;1.80;;;6.90;99.90;;;;;;5016772;28;20026;-37
2022/02/15 00:43:48;;;;;;;20.00;2.15;;;6.90;99.90;;;;;;5016295;28;20026;-36
2022/02/15 00:46:14;;;;;;;14.45;2.42;;;6.80;99.90;;;;;;5016064;28;20108;-36
2022/02/15 00:48:39;;;;;;;4.95;1.50;;;6.80;99.90;;;;;;5033034;28;20397;-37
2022/02/15 00:51:05;;;;;;;5.88;2.25;;;6.80;99.90;;;;;;5035300;28;20030;-45
2022/02/15 00:53:49;;;;;;;2.10;1.35;;;6.80;99.90;;;;;;5029960;28;20033;-48
2022/02/15 00:56:15;;;;;;;6.22;1.60;;;6.80;99.90;;;;;;5029330;28;20112;-37
2022/02/15 00:58:40;;;;;;;4.60;1.50;;;6.80;99.90;;;;;;5034128;28;20436;-43
2022/02/15 01:01:07;;;;;;;8.60;1.88;;;6.80;99.90;;;;;;5033161;28;20045;-36
2022/02/15 01:03:32;;;;;;;3.40;1.88;;;6.80;99.90;;;;;;5033117;28;20104;-38
2022/02/15 01:06:01;;;;;;;7.95;2.40;;;6.80;99.90;;;;;;5032467;28;20052;-45
2022/02/15 01:08:30;;;;;;;7.88;2.58;;;6.80;99.90;;;;;;5024233;28;20034;-43
2022/02/15 01:10:56;;;;;;;5.97;2.08;;;6.70;99.90;;;;;;5015955;28;20570;-38
2022/02/15 01:13:21;;;;;;;4.78;2.58;;;6.60;99.90;;;;;;5018980;28;20115;-36
2022/02/15 01:15:47;;;;;;;4.88;2.42;;;6.60;99.90;;;;;;5029312;28;20018;-37
2022/02/15 01:18:12;;;;;;;7.03;2.45;;;6.70;99.90;;;;;;5027124;28;20022;-37
2022/02/15 01:20:38;;;;;;;7.45;2.60;;;6.60;99.90;;;;;;5026639;28;20018;-38
2022/02/15 01:23:04;;;;;;;9.20;2.80;;;6.60;99.90;;;;;;5024812;28;20038;-38
2022/02/15 01:25:29;;;;;;;11.70;3.88;;;6.60;99.90;;;;;;5035205;28;20457;-38
2022/02/15 01:27:55;;;;;;;5.18;2.58;;;6.60;99.90;;;;;;5034263;28;20032;-39
2022/02/15 01:30:21;;;;;;;7.35;2.70;;;6.60;99.90;;;;;;5028415;28;20506;-39
2022/02/15 01:32:47;;;;;;;5.60;2.45;;;6.60;99.90;;;;;;5019493;28;20065;-44
2022/02/15 01:35:13;;;;;;;6.53;2.45;;;6.60;99.90;;;;;;5027426;28;20067;-38
2022/02/15 01:37:39;;;;;;;4.70;2.50;;;6.60;99.90;;;;;;5033778;28;20480;-38
2022/02/15 01:40:06;;;;;;;4.10;2.47;;;6.60;99.90;;;;;;5028579;28;20026;-38
2022/02/15 01:42:32;;;;;;;6.30;2.65;;;6.60;99.90;;;;;;5023759;28;20474;-45
2022/02/15 01:44:57;;;;;;;3.60;3.17;;;6.50;99.90;;;;;;5031036;28;20021;-37
2022/02/15 01:47:25;;;;;;;8.32;2.80;;;6.50;99.90;;;;;;5028113;28;20469;-38
2022/02/15 01:49:51;;;;;;;4.43;2.90;;;6.50;99.90;;;;;;5025240;28;20034;-37
2022/02/15 01:52:20;;;;;;;8.77;2.40;;;6.50;99.90;;;;;;5029272;28;20026;-39
2022/02/15 01:54:47;;;;;;;9.82;2.90;;;6.60;99.90;;;;;;5034275;28;20021;-38
2022/02/15 01:57:13;;;;;;;2.65;2.38;;;6.60;99.90;;;;;;5034223;28;20017;-47
2022/02/15 01:59:39;;;;;;;5.28;3.05;;;6.60;99.90;;;;;;5034259;28;20048;-39
2022/02/15 02:02:04;;;;;;;7.88;2.78;;;6.70;99.90;;;;;;5034654;28;20021;-39
2022/02/15 02:07:14;;;;;;;5.47;2.55;;;6.80;99.90;;;;;;5020511;28;20092;-40
2022/02/15 02:09:39;;;;;;;2.45;2.20;;;6.80;99.90;;;;;;5019788;28;20479;-37
2022/02/15 02:12:05;;;;;;;3.80;1.92;;;6.80;99.90;;;;;;5033682;28;20064;-45
2022/02/15 02:14:31;;;;;;;3.45;2.13;;;6.80;99.90;;;;;;5032741;28;20485;-44
2022/02/15 02:16:57;;;;;;;5.68;2.08;;;6.80;99.90;;;;;;5023625;28;20030;-37
2022/02/15 02:19:22;;;;;;;10.30;2.20;;;6.80;99.90;;;;;;5018084;28;20028;-37
2022/02/15 02:21:48;;;;;;;6.28;2.17;;;6.80;99.90;;;;;;5032888;28;20045;-39
2022/02/15 02:24:13;;;;;;;3.13;2.10;;;6.70;99.90;;;;;;5031666;28;20053;-37
2022/02/15 02:26:39;;;;;;;9.27;2.25;;;6.70;99.90;;;;;;5025342;28;20025;-37
2022/02/15 02:29:05;;;;;;;5.57;2.08;;;6.80;99.90;;;;;;5019433;28;20533;-37
2022/02/15 02:31:31;;;;;;;7.10;2.15;;;6.80;99.90;;;;;;5030676;28;20044;-39
2022/02/15 02:34:00;;;;;;;7.00;2.35;;;6.80;99.90;;;;;;5031659;28;20032;-52
2022/02/15 02:36:26;;;;;;;5.78;2.17;;;6.80;99.90;;;;;;5021465;28;20478;-37
2022/02/15 02:38:51;;;;;;;6.20;2.05;;;6.80;99.90;;;;;;5015205;28;20061;-39
2022/02/15 02:41:17;;;;;;;6.18;2.47;;;6.80;99.90;;;;;;5014186;28;20065;-41
2022/02/15 02:43:42;;;;;;;7.15;2.55;;;6.80;99.90;;;;;;5012980;28;20038;-37
2022/02/15 02:46:08;;;;;;;4.28;2.45;;;6.80;99.90;;;;;;5026103;28;20529;-37
2022/02/15 02:48:33;;;;;;;7.15;2.13;;;6.90;99.90;;;;;;5025513;28;20033;-39
2022/02/15 02:50:59;;;;;;;3.85;2.30;;;6.90;99.90;;;;;;5022819;28;20033;-38
2022/02/15 02:53:25;;;;;;;15.15;2.90;;;6.90;99.90;;;;;;5025680;28;20108;-37
2022/02/15 02:55:50;;;;;;;3.92;2.67;;;6.90;99.90;;;;;;5015068;28;20435;-37
2022/02/15 02:58:16;;;;;;;4.80;2.67;;;6.90;99.90;;;;;;5031274;28;20031;-37
2022/02/15 03:00:41;;;;;;;5.55;2.90;;;6.90;99.90;;;;;;5032433;28;20025;-37
2022/02/15 03:03:07;;;;;;;4.40;2.58;;;6.90;99.90;;;;;;5031530;28;20041;-38
2022/02/15 03:05:36;;;;;;;13.77;2.40;;;6.90;99.90;;;;;;5018202;28;20108;-45
2022/02/15 03:08:02;;;;;;;7.65;2.58;;;6.80;99.90;;;;;;5031096;28;20037;-39
2022/02/15 03:10:28;;;;;;;8.77;2.80;;;6.90;99.90;;;;;;5030869;28;20072;-44
2022/02/15 03:12:53;;;;;;;10.85;3.50;;;6.90;99.90;;;;;;5021989;28;20025;-39
2022/02/15 03:15:19;;;;;;;6.25;2.80;;;6.80;99.90;;;;;;5031290;28;20091;-39
2022/02/15 03:17:44;;;;;;;15.65;3.47;;;6.70;99.90;;;;;;5030905;28;20140;-52
2022/02/15 03:20:11;;;;;;;11.07;2.83;;;6.70;99.90;;;;;;5030624;28;20022;-37
2022/02/15 03:22:36;;;;;;;10.82;3.13;;;6.80;99.90;;;;;;5021488;28;20052;-39
2022/02/15 03:25:02;;;;;;;5.78;2.67;;;6.80;99.90;;;;;;5029946;28;20104;-37
2022/02/15 03:27:28;;;;;;;8.05;2.88;;;6.90;99.90;;;;;;5019141;28;20482;-39
2022/02/15 03:29:54;;;;;;;8.77;3.25;;;6.90;99.90;;;;;;5023793;28;20086;-37
2022/02/15 03:32:19;;;;;;;6.97;2.90;;;6.90;99.90;;;;;;5025426;28;20033;-37
2022/02/15 03:34:45;;;;;;;4.97;2.50;;;6.90;99.90;;;;;;5025752;28;20067;-37
2022/02/15 03:37:11;;;;;;;5.70;3.13;;;7.00;99.90;;;;;;5028874;28;20017;-38
2022/02/15 03:39:36;;;;;;;5.25;2.97;;;7.00;99.90;;;;;;5031259;28;20072;-38
2022/02/15 03:44:48;;;;;;;7.72;3.10;;;7.00;99.90;;;;;;5028767;28;20102;-37
2022/02/15 03:47:13;;;;;;;6.47;2.42;;;7.10;99.90;;;;;;5019184;28;20108;-36
2022/02/15 03:49:39;;;;;;;7.13;3.10;;;7.10;99.90;;;;;;5018084;28;20018;-37
2022/02/15 03:52:05;;;;;;;7.70;3.00;;;7.10;99.90;;;;;;5013077;28;20462;-36
2022/02/15 03:54:31;;;;;;;10.10;3.55;;;7.00;99.90;;;;;;5019790;28;20425;-39
2022/02/15 03:56:56;;;;;;;9.82;3.40;;;7.00;99.90;;;;;;5020330;28;20446;-40
2022/02/15 03:59:22;;;;;;;11.85;3.53;;;7.00;99.90;;;;;;5020051;28;20029;-38
2022/02/15 04:01:47;;;;;;;10.55;3.00;;;7.00;99.90;;;;;;5018852;28;20053;-38
2022/02/15 04:04:13;;;;;;;5.82;3.17;;;7.00;99.90;;;;;;5021861;28;20080;-36
2022/02/15 04:06:39;;;;;;;7.15;3.25;;;7.10;99.90;;;;;;5021388;28;20108;-48
2022/02/15 04:09:04;;;;;;;8.77;3.53;;;7.00;99.90;;;;;;5031972;28;20535;-38
2022/02/15 04:11:30;;;;;;;4.03;2.72;;;7.10;99.90;;;;;;5032726;28;20036;-39
2022/02/15 04:13:55;;;;;;;6.03;2.92;;;7.10;99.90;;;;;;5029896;28;20236;-38
2022/02/15 04:16:21;;;;;;;10.32;3.53;;;7.10;99.90;;;;;;5027632;28;20033;-38
2022/02/15 04:18:48;;;;;;;6.40;3.53;;;7.10;99.90;;;;;;5023127;28;20474;-36
2022/02/15 04:21:15;;;;;;;8.77;2.83;;;7.10;99.90;;;;;;5025229;28;20525;-39
2022/02/15 04:23:42;;;;;;;15.60;4.38;;;7.10;99.90;;;;;;5025153;28;20050;-39
2022/02/15 04:26:07;;;;;;;12.02;4.15;;;7.20;99.90;;;;;;5021797;28;20022;-37
2022/02/15 04:28:33;;;;;;;6.57;3.63;;;7.20;99.90;;;;;;5028342;28;20036;-38
2022/02/15 04:30:59;;;;;;;7.13;3.35;;;7.20;99.90;;;;;;5028951;28;20042;-38
2022/02/15 04:33:24;;;;;;;8.02;3.80;;;7.20;99.90;;;;;;5018716;28;20030;-37
2022/02/15 04:35:50;;;;;;;8.00;3.10;;;7.30;99.90;;;;;;5027960;28;20097;-38
2022/02/15 04:38:16;;;;;;;7.43;3.22;;;7.30;99.90;;;;;;5016335;28;20557;-39
2022/02/15 04:40:42;;;;;;;6.30;3.42;;;7.20;99.90;;;;;;5031667;28;20029;-39
2022/02/15 04:43:08;;;;;;;8.80;3.03;;;7.20;99.90;;;;;;5025543;28;20120;-44
2022/02/15 04:45:33;;;;;;;6.90;3.67;;;7.20;99.90;;;;;;5026658;28;20069;-37
2022/02/15 04:47:59;;;;;;;6.85;3.45;;;7.20;99.90;;;;;;5031635;28;20030;-37
2022/02/15 04:50:24;;;;;;;11.65;3.28;;;7.20;99.90;;;;;;5015509;28;20386;-37
2022/02/15 04:52:50;;;;;;;12.43;3.38;;;7.10;99.90;;;;;;5031705;28;20022;-36
2022/02/15 04:55:17;;;;;;;6.22;3.20;;;7.10;99.90;;;;;;5022780;28;20105;-47
2022/02/15 04:57:43;;;;;;;14.80;3.83;;;7.10;99.90;;;;;;5017744;28;20045;-39
2022/02/15 05:00:09;;;;;;;10.40;3.40;;;7.10;99.90;;;;;;5030406;28;20540;-39
2022/02/15 05:02:34;;;;;;;13.13;3.13;;;7.10;99.90;;;;;;5032820;28;20053;-42
2022/02/15 05:05:00;;;;;;;14.13;3.97;;;7.10;99.90;;;;;;5035480;28;20064;-38
2022/02/15 05:07:28;;;;;;;14.88;3.40;;;7.20;99.90;;;;;;5033973;28;20041;-37
2022/02/15 05:09:54;;;;;;;13.10;3.63;;;7.20;99.90;;;;;;5025326;28;20036;-37
2022/02/15 05:12:20;;;;;;;4.70;3.10;;;7.10;99.90;;;;;;5031564;28;20109;-37
2022/02/15 05:14:45;;;;;;;9.25;3.33;;;7.20;99.90;;;;;;5023330;28;20093;-37
2022/02/15 05:17:11;;;;;;;8.18;3.40;;;7.30;99.90;;;;;;5031946;28;20049;-38
2022/02/15 05:19:37;;;;;;;7.57;3.70;;;7.30;99.90;;;;;;5023289;28;20041;-36
2022/02/15 05:22:03;;;;;;;8.70;4.00;;;7.30;99.90;;;;;;5034190;28;20098;-38
2022/02/15 05:24:30;;;;;;;7.15;3.55;;;7.30;99.90;;;;;;5019048;28;20104;-38
2022/02/15 05:26:55;;;;;;;10.73;3.58;;;7.30;99.90;;;;;;5016019;28;20355;-41
2022/02/15 05:29:21;;;;;;;11.15;3.72;;;7.30;99.90;;;;;;5033590;28;20101;-37
2022/02/15 05:31:47;;;;;;;6.25;3.85;;;7.30;99.90;;;;;;5025816;28;20046;-38
2022/02/15 05:34:14;;;;;;;12.77;3.90;;;7.30;99.90;;;;;;5031565;28;20026;-37
2022/02/15 05:36:40;;;;;;;10.27;4.35;;;7.40;99.90;;;;;;5015584;28;20084;-38
2022/02/15 05:39:06;;;;;;;10.70;3.45;;;7.40;99.90;;;;;;5019065;28;20236;-37
2022/02/15 05:41:31;;;;;;;9.65;5.05;;;7.40;99.90;;;;;;5021436;28;20037;-37
2022/02/15 05:43:57;;;;;;;19.17;4.72;;;7.40;99.90;;;;;;5032129;28;20040;-38
2022/02/15 05:46:22;;;;;;;13.27;4.00;;;7.40;99.90;;;;;;5031225;28;20025;-38
2022/02/15 05:48:48;;;;;;;15.48;4.45;;;7.40;99.90;;;;;;5026941;28;20100;-40
2022/02/15 05:51:14;;;;;;;9.70;4.03;;;7.50;99.90;;;;;;5030349;28;20065;-37
2022/02/15 05:53:40;;;;;;;19.17;4.90;;;7.50;99.90;;;;;;5022543;28;20477;-54
2022/02/15 05:56:06;;;;;;;9.65;3.63;;;7.60;99.90;;;;;;5032465;28;20100;-39
2022/02/15 05:58:32;;;;;;;14.02;4.18;;;7.60;99.90;;;;;;5027824;28;20164;-37
2022/02/15 06:00:59;;;;;;;11.93;4.35;;;7.60;99.90;;;;;;5025298;28;20029;-44
2022/02/15 06:06:08;;;;;;;10.10;3.85;;;7.60;99.90;;;;;;5029044;28;20088;-39
2022/02/15 06:08:34;;;;;;;9.10;3.38;;;7.60;99.90;;;;;;5028814;28;20445;-38
2022/02/15 06:11:00;;;;;;;9.98;3.40;;;7.60;99.90;;;;;;5031613;28;20021;-38
2022/02/15 06:13:26;;;;;;;19.17;4.55;;;7.60;99.90;;;;;;5026542;28;20029;-37
2022/02/15 06:15:52;;;;;;;11.18;4.35;;;7.60;99.90;;;;;;5016973;28;20076;-37
2022/02/15 06:18:17;;;;;;;7.38;2.97;;;7.60;99.90;;;;;;5030728;28;20022;-36
2022/02/15 06:20:43;;;;;;;7.82;3.38;;;7.70;99.90;;;;;;5014878;28;20035;-39
2022/02/15 06:23:09;;;;;;;13.82;3.33;;;7.70;99.90;;;;;;5023653;28;20573;-38
2022/02/15 06:25:35;;;;;;;7.40;3.65;;;7.70;99.90;;;;;;5022357;28;20060;-39
2022/02/15 06:28:01;;;;;;;8.65;3.92;;;7.70;99.90;;;;;;5015807;28;20034;-37
2022/02/15 06:30:27;;;;;;;13.98;3.75;;;7.70;99.90;;;;;;5014413;28;20173;-38
2022/02/15 06:32:52;;;;;;;13.35;4.32;;;7.70;99.90;;;;;;5026697;28;20057;-35
2022/02/15 06:35:18;;;;;;;9.32;3.13;;;7.70;99.90;;;;;;5026481;28;20536;-38
2022/02/15 06:37:47;;;;;;;8.32;3.25;;;7.70;99.90;;;;;;5026205;28;20040;-37
2022/02/15 06:40:15;;;;;;;11.13;3.15;;;7.70;99.90;;;;;;5014090;28;20486;-39
2022/02/15 06:42:43;;;;;;;19.58;3.63;;;7.60;99.90;;;;;;5022808;28;20033;-37
2022/02/15 06:45:09;;;;;;;13.85;4.10;;;7.60;99.90;;;;;;5022660;28;20045;-38
2022/02/15 06:47:35;;;;;;;14.23;3.45;;;7.60;99.90;;;;;;5019006;28;20091;-37
2022/02/15 06:50:02;;;;;;;6.63;2.47;;;7.60;99.90;;;;;;5033010;28;20038;-38
2022/02/15 06:52:28;;;;;;;20.80;3.05;;;7.60;99.90;;;;;;5033523;28;20075;-37
2022/02/15 06:54:54;;;;;;;17.17;3.78;;;7.60;99.90;;;;;;5024463;28;20029;-39
2022/02/15 06:57:20;;;;;;;11.52;3.08;;;7.60;99.90;;;;;;5028397;28;20036;-50
2022/02/15 06:59:46;;;;;;;9.10;2.90;;;7.60;99.90;;;;;;5015591;28;20053;-38
2022/02/15 07:02:11;;;;;;;10.38;2.50;;;7.70;99.90;;;;;;5018684;28;20022;-36
2022/02/15 07:04:37;;;;;;;13.05;3.08;;;7.60;99.90;;;;;;5026536;28;20025;-37
2022/02/15 07:07:03;;;;;;;15.27;2.50;;;7.60;99.90;;;;;;5018809;28;20112;-52
2022/02/15 07:09:29;;;;;;;15.13;3.08;;;7.50;99.90;;;;;;5016484;28;20052;-39
2022/02/15 07:11:54;;;;;;;5.63;2.45;;;7.50;99.90;;;;;;5029644;28;20068;-37
2022/02/15 07:14:20;;;;;;;10.38;2.65;;;7.40;99.90;;;;;;5032418;28;20021;-39
2022/02/15 07:16:46;;;;;;;13.00;3.08;;;7.40;99.90;;;;;;5033022;28;20021;-41
2022/02/15 07:19:12;;;;;;;13.82;2.85;;;7.40;99.90;;;;;;5020803;28;20026;-37
2022/02/15 07:21:38;;;;;;;9.25;2.83;;;7.40;99.90;;;;;;5027460;28;20032;-36
2022/02/15 07:24:04;;;;;;;11.00;3.03;;;7.30;99.90;;;;;;5032523;28;20034;-38
2022/02/15 07:26:30;;;;;;;6.57;2.40;;;7.30;99.90;;;;;;5024070;28;20077;-39
2022/02/15 07:28:57;;;;;;;6.90;2.20;;;7.30;99.90;;;;;;5016440;28;20498;-37
2022/02/15 07:31:22;;;;;;;12.57;2.28;;;7.20;99.90;;;;;;5028131;28;20490;-37
2022/02/15 07:33:48;;;;;;;16.73;2.45;;;7.40;99.90;;;;;;5029538;28;20075;-38
2022/02/15 07:36:14;;;;;;;14.73;2.30;;;7.40;99.90;;;;;;5032579;28;20029;-37
2022/02/15 07:38:40;;;;;;;3.67;1.75;;;7.50;99.90;;;;;;5032211;28;20056;-36
2022/02/15 07:41:05;;;;;;;11.15;2.50;;;7.60;99.90;;;;;;5027092;28;20025;-37
2022/02/15 07:43:31;;;;;;;11.02;1.77;;;7.60;99.90;;;;;;5027605;28;20025;-38
2022/02/15 07:45:57;;;;;;;7.05;2.15;;;7.60;99.90;;;;;;5024380;28;20462;-37
2022/02/15 07:48:22;;;;;;;9.43;2.38;;;7.60;99.90;;;;;;5031915;28;20033;-36
2022/02/15 07:50:48;;;;;;;11.23;2.33;;;7.60;99.90;;;;;;5032628;28;20030;-51
2022/02/15 07:53:14;;;;;;;12.52;2.00;;;7.60;99.90;;;;;;5024603;28;20018;-38
2022/02/15 07:55:41;;;;;;;5.32;2.65;;;7.70;99.90;;;;;;5029507;28;20025;-39
2022/02/15 07:58:07;;;;;;;8.90;2.30;;;7.60;99.90;;;;;;5032158;28;20060;-39
2022/02/15 08:00:33;;;;;;;11.13;2.30;;;7.60;99.90;;;;;;5031099;28;20096;-38
2022/02/15 08:02:59;;;;;;;12.38;3.03;;;7.70;99.90;;;;;;5030908;28;20422;-39
2022/02/15 08:05:25;;;;;;;9.55;2.80;;;7.70;99.90;;;;;;5032084;28;20057;-39
2022/02/15 08:07:55;;;;;;;11.82;2.53;;;7.70;99.90;;;;;;5032098;28;20029;-38
2022/02/15 08:10:22;;;;;;;12.57;2.05;;;7.70;99.90;;;;;;5032718;28;20025;-38
2022/02/15 08:12:55;;;;;;;8.73;2.35;;;7.70;99.90;;;;;;5032252;28;20164;-37
2022/02/15 08:15:23;;;;;;;3.38;2.03;;;7.70;99.90;;;;;;5031104;28;20479;-38
2022/02/15 08:17:48;;;;;;;8.98;2.40;;;7.80;99.90;;;;;;5032096;28;20025;-38
2022/02/15 08:20:14;;;;;;;9.52;2.58;;;7.90;99.90;;;;;;5031908;28;20022;-37
2022/02/15 08:22:40;;;;;;;12.50;3.22;;;7.90;99.90;;;;;;5020269;28;20040;-37
2022/02/15 08:25:07;;;;;;;6.65;2.72;;;7.90;99.90;;;;;;5027330;28;20033;-38
2022/02/15 08:27:33;;;;;;;9.38;2.40;;;8.00;99.90;;;;;;5030723;28;20025;-37
2022/02/15 08:29:58;;;;;;;16.13;2.88;;;8.00;99.90;;;;;;5024740;28;20040;-38
2022/02/15 08:32:24;;;;;;;11.90;2.97;;;8.00;99.90;;;;;;5021068;28;20482;-41
2022/02/15 08:34:50;;;;;;;11.68;3.92;;;8.00;99.90;;;;;;5022531;28;20022;-37
2022/02/15 08:37:16;;;;;;;12.00;2.75;;;8.00;99.90;;;;;;5026418;28;20042;-40
2022/02/15 08:39:41;;;;;;;9.98;2.97;;;8.10;99.90;;;;;;5026894;28;20040;-39
2022/02/15 08:42:07;;;;;;;6.75;2.10;;;8.10;99.90;;;;;;5035540;28;20064;-47
2022/02/15 08:44:34;;;;;;;14.35;2.70;;;8.00;99.90;;;;;;5027728;28;20026;-38
2022/02/15 08:47:01;;;;;;;4.32;2.38;;;8.10;99.90;;;;;;5017121;28;20105;-38
2022/02/15 08:49:27;;;;;;;18.20;2.60;;;8.20;99.90;;;;;;5035688;28;20485;-39
2022/02/15 08:51:53;;;;;;;4.57;2.08;;;8.30;99.90;;;;;;5022940;28;20448;-39
2022/02/15 08:54:19;;;;;;;13.10;2.28;;;8.40;99.90;;;;;;5029785;28;20025;-39
2022/02/15 08:56:45;;;;;;;7.35;1.90;;;8.40;99.90;;;;;;5035722;28;20049;-39
2022/02/15 08:59:10;;;;;;;12.20;2.70;;;8.30;99.90;;;;;;5025966;28;20017;-40
2022/02/15 09:01:36;;;;;;;16.92;2.85;;;8.30;99.90;;;;;;5035241;28;20041;-40
2022/02/15 09:04:02;;;;;;;8.50;2.30;;;8.40;99.90;;;;;;5020090;28;20389;-38
2022/02/15 09:06:27;;;;;;;10.07;2.22;;;8.30;99.90;;;;;;5020106;28;20148;-38
2022/02/15 09:08:53;;;;;;;9.75;2.60;;;8.20;99.90;;;;;;5019510;28;20026;-38
2022/02/15 09:11:19;;;;;;;15.73;2.58;;;8.10;99.90;;;;;;5018799;28;20029;-39
2022/02/15 09:13:44;;;;;;;7.85;1.80;;;8.10;99.90;;;;;;5033188;28;20022;-46
2022/02/15 09:16:10;;;;;;;13.35;2.95;;;8.10;99.90;;;;;;5024624;28;20180;-38
2022/02/15 09:18:36;;;;;;;13.85;2.38;;;8.30;99.90;;;;;;5025495;28;20052;-39
2022/02/15 09:21:03;;;;;;;6.45;2.03;;;8.30;99.90;;;;;;5027353;28;20123;-40
2022/02/15 09:23:29;;;;;;;4.47;1.73;;;8.40;99.90;;;;;;5029394;28;20038;-39
2022/02/15 09:25:56;;;;;;;9.38;1.95;;;8.50;99.90;;;;;;5029110;28;20539;-39
2022/02/15 09:28:22;;;;;;;14.77;2.65;;;8.40;99.90;;;;;;5027759;28;20030;-44
2022/02/15 09:30:54;;;;;;;13.60;2.63;;;8.40;99.90;;;;;;5032535;28;20552;-39
2022/02/15 09:33:24;;;;;;;5.80;1.42;;;8.20;99.90;;;;;;5022090;28;20558;-38
2022/02/15 09:35:49;;;;;;;10.18;2.55;;;8.00;99.90;;;;;;5023883;28;20547;-39
2022/02/15 09:38:16;;;;;;;9.25;2.00;;;7.80;99.90;;;;;;5020887;28;20051;-39
2022/02/15 09:40:42;;;;;;;5.78;1.67;;;7.70;99.90;;;;;;5023809;28;20492;-39
2022/02/15 09:43:10;;;;;;;7.97;2.58;;;7.70;99.90;;;;;;5034638;28;20108;-39
2022/02/15 09:45:36;;;;;;;4.28;1.67;;;7.70;99.90;;;;;;5032859;28;20036;-40
2022/02/15 09:48:03;;;;;;;5.95;2.08;;;7.70;99.90;;;;;;5033764;28;20026;-44
2022/02/15 09:50:32;;;;;;;10.63;1.48;;;7.70;99.90;;;;;;5033523;28;20068;-39
2022/02/15 09:52:59;;;;;;;13.27;2.55;;;7.60;99.90;;;;;;5034363;28;20017;-38
2022/02/15 09:55:25;;;;;;;11.52;2.13;;;7.50;99.90;;;;;;5034781;28;20022;-45
2022/02/15 09:57:51;;;;;;;18.30;1.85;;;7.50;99.90;;;;;;5030160;28;20022;-39
2022/02/15 10:00:21;;;;;;;11.02;2.20;;;7.50;99.90;;;;;;5019939;28;20033;-37
2022/02/15 10:02:47;;;;;;;9.30;1.63;;;7.50;99.90;;;;;;5023509;28;20026;-39
2022/02/15 10:05:15;;;;;;;9.25;2.08;;;7.40;99.90;;;;;;5021703;28;20454;-39
2022/02/15 10:07:57;;;;;;;10.55;2.70;;;7.50;99.90;;;;;;5023624;28;20029;-39
2022/02/15 10:10:33;;;;;;;8.55;1.83;;;7.60;99.90;;;;;;5025443;28;20044;-37
2022/02/15 10:13:03;;;;;;;8.48;1.63;;;7.80;99.90;;;;;;5020693;28;20117;-38
2022/02/15 10:15:34;;;;;;;6.30;1.88;;;8.10;99.90;;;;;;5024718;28;20104;-41
2022/02/15 10:18:14;;;;;;;8.00;1.73;;;8.40;99.90;;;;;;5023059;28;20033;-40
2022/02/15 10:20:45;;;;;;;8.48;1.38;;;8.80;99.90;;;;;;5024122;28;20485;-39
2022/02/15 10:23:20;;;;;;;5.20;0.98;;;9.10;99.90;;;;;;5022807;28;20489;-38
2022/02/15 10:25:48;;;;;;;5.28;1.13;;;9.20;99.90;;;;;;5024450;28;20107;-39
2022/02/15 10:28:19;;;;;;;11.85;3.22;;;9.30;99.90;;;;;;5026235;28;20021;-38
2022/02/15 10:30:48;;;;;;;4.47;1.60;;;9.30;99.90;;;;;;5021861;28;20116;-34
2022/02/15 10:33:14;;;;;;;10.27;1.38;;;9.30;99.90;;;;;;5020278;28;20053;-38
2022/02/15 10:35:43;;;;;;;2.42;0.80;;;9.10;99.90;;;;;;5024132;28;20029;-59
2022/02/15 10:38:09;;;;;;;9.77;1.20;;;9.00;99.90;;;;;;5022261;28;20037;-39
2022/02/15 10:40:35;;;;;;;8.32;1.60;;;9.00;99.90;;;;;;5025822;28;20033;-40
2022/02/15 10:43:01;;;;;;;5.88;1.33;;;9.10;99.90;;;;;;5024766;28;20026;-39
2022/02/15 10:45:27;;;;;;;7.72;1.42;;;9.10;99.90;;;;;;5022455;28;20478;-37
2022/02/15 10:47:53;;;;;;;3.83;0.98;;;9.10;99.90;;;;;;5022538;28;20037;-36
2022/02/15 10:50:19;;;;;;;5.10;0.80;;;9.00;99.90;;;;;;5029727;28;20485;-39
2022/02/15 10:52:45;;;;;;;10.27;2.30;;;9.10;99.90;;;;;;5026910;28;20030;-38
2022/02/15 10:55:14;;;;;;;6.88;1.52;;;9.10;99.90;;;;;;5032555;28;20021;-38
2022/02/15 10:57:40;;;;;;;10.45;1.80;;;9.20;99.90;;;;;;5029493;28;20029;-41
2022/02/15 11:00:09;;;;;;;5.13;1.25;;;9.30;99.90;;;;;;5031866;28;20490;-35
2022/02/15 11:02:39;;;;;;;2.90;0.85;;;9.30;99.90;;;;;;5026408;28;20030;-46
2022/02/15 11:05:07;;;;;;;5.30;1.13;;;9.40;99.90;;;;;;5028973;28;20525;-47
2022/02/15 11:07:36;;;;;;;8.57;1.15;;;9.50;99.90;;;;;;5028711;28;20037;-39
2022/02/15 11:10:27;;;;;;;4.95;1.00;;;9.50;99.90;;;;;;5025136;28;20451;-37
2022/02/15 11:12:56;;;;;;;11.32;1.15;;;9.40;99.90;;;;;;5030908;28;20025;-43
2022/02/15 11:15:33;;;;;;;7.07;1.10;;;9.40;99.90;;;;;;5030686;28;20025;-39
2022/02/15 11:18:03;;;;;;;2.97;0.88;;;9.40;99.90;;;;;;5030455;28;20025;-43
2022/02/15 11:20:50;;;;;;;5.97;1.05;;;9.40;99.90;;;;;;5032032;28;20057;-44
2022/02/15 11:23:17;;;;;;;5.18;1.35;;;9.30;99.90;;;;;;5023179;28;20050;-42
2022/02/15 11:25:44;;;;;;;7.00;1.10;;;9.20;99.90;;;;;;5022535;28;20092;-38
2022/02/15 11:28:13;;;;;;;5.75;0.77;;;9.40;99.90;;;;;;5022570;28;20026;-41
2022/02/15 11:30:51;;;;;;;0.98;0.60;;;9.50;99.90;;;;;;5020017;28;20546;-39
2022/02/15 11:33:35;;;;;;;2.40;0.80;;;9.50;99.90;;;;;;5014911;28;20072;-40
2022/02/15 11:36:05;;;;;;;5.40;1.05;;;9.60;99.90;;;;;;5026377;28;20020;-39
2022/02/15 11:38:31;;;;;;;1.00;0.68;;;9.70;99.90;;;;;;5030737;28;20120;-36
2022/02/15 11:40:59;;;;;;;2.97;1.05;;;9.60;99.90;;;;;;5031109;28;20036;-40
2022/02/15 11:43:25;;;;;;;7.53;1.23;;;9.60;99.90;;;;;;5030419;28;20044;-39
2022/02/15 11:45:51;;;;;;;4.22;0.55;;;9.70;99.90;;;;;;5016007;28;20041;-40
2022/02/15 11:48:16;;;;;;;5.25;1.10;;;9.80;99.90;;;;;;5019893;28;20037;-39
2022/02/15 11:50:47;;;;;;;12.23;1.42;;;9.80;99.90;;;;;;5019606;28;20482;-40
2022/02/15 11:53:14;;;;;;;6.72;1.33;;;9.80;99.90;;;;;;5029858;28;20367;-41
2022/02/15 11:55:40;;;;;;;0.73;0.60;;;9.80;99.90;;;;;;5029031;28;20025;-39
2022/02/15 11:58:09;;;;;;;3.10;0.95;;;9.80;99.90;;;;;;5031561;28;20117;-42
2022/02/15 12:00:37;;;;;;;7.10;1.40;;;9.90;99.90;;;;;;5027445;28;20087;-44
2022/02/15 12:03:04;;;;;;;6.97;0.80;;;9.90;99.90;;;;;;5017390;28;20079;-40
2022/02/15 12:05:34;;;;;;;10.20;1.88;;;9.90;99.90;;;;;;5029196;28;20091;-39
2022/02/15 12:08:00;;;;;;;5.50;1.27;;;10.00;99.90;;;;;;5030360;28;20060;-37
2022/02/15 12:10:37;;;;;;;4.50;0.95;;;10.00;99.90;;;;;;5031142;28;20299;-39
2022/02/15 12:13:03;;;;;;;;;;;9.90;99.90;;;;;;5032557;28;20474;-38
2022/02/15 12:15:35;;;;;;;3.30;1.38;;;9.90;99.90;;;;;;5034800;28;19909;-38
2022/02/15 12:18:02;;;;;;;6.78;1.00;;;10.00;99.90;;;;;;5031158;28;20018;-38
2022/02/15 12:20:27;;;;;;;8.68;1.38;;;10.00;99.90;;;;;;5024290;28;20033;-38
2022/02/15 12:22:55;;;;;;;5.38;0.82;;;10.00;99.90;;;;;;5049004;28;20485;-56
2022/02/15 12:25:21;;;;;;;4.38;0.90;;;10.10;99.90;;;;;;5036495;28;20036;-38
2022/02/15 12:27:47;;;;;;;4.63;1.05;;;10.10;99.90;;;;;;5035827;28;20502;-39
2022/02/15 12:30:16;;;;;;;2.97;1.25;;;10.20;99.90;;;;;;5036013;28;20040;-39
2022/02/15 12:32:46;;;;;;;4.45;0.98;;;10.20;99.90;;;;;;5036654;28;20045;-39
2022/02/15 12:35:13;;;;;;;4.82;0.82;;;10.20;99.90;;;;;;5036527;28;20032;-40
2022/02/15 12:37:38;;;;;;;7.15;1.17;;;10.30;99.90;;;;;;5035616;28;20024;-40
2022/02/15 12:40:06;;;;;;;2.45;0.90;;;10.30;99.90;;;;;;5016387;28;20065;-39
2022/02/15 12:42:34;;;;;;;;;;;10.10;99.90;;;;;;5016825;28;20029;-37
2022/02/15 12:45:10;;;;;;;3.40;1.63;;;10.10;99.90;;;;;;5016585;28;19909;-39
2022/02/15 12:47:40;;;;;;;3.17;1.00;;;10.20;99.90;;;;;;5018743;28;20034;-39
2022/02/15 12:50:09;;;;;;;7.72;1.40;;;10.40;99.90;;;;;;5036129;28;20029;-42
2022/02/15 12:52:35;;;;;;;7.03;1.20;;;10.60;99.90;;;;;;5034797;28;20025;-38
2022/02/15 12:55:09;;;;;;;8.75;1.02;;;10.60;99.90;;;;;;5035125;28;20370;-39
2022/02/15 12:57:38;;;;;;;2.67;1.10;;;10.50;99.90;;;;;;5035823;28;20021;-38
2022/02/15 13:00:05;;;;;;;5.75;1.20;;;10.40;99.90;;;;;;5035782;28;20030;-39
2022/02/15 13:02:33;;;;;;;2.13;0.90;;;10.40;99.90;;;;;;5035865;28;20026;-42
2022/02/15 13:04:59;;;;;;;6.53;1.45;;;10.40;99.90;;;;;;5023655;28;20022;-46